Time;durP1;ratioP1;P1;durP2;ratioP2;P2;SDS_P1;SDS_P2;PMS_P1;PMS_P2;Temp;Humidity;BMP_temperature;BMP_pressure;BME280_temperature;BME280_humidity;BME280_pressure;Samples;Min_cycle;Max_cycle;Signal;HPM_P1;HPM_P2
2023/10/26 00:00:29;;;;;;;3.72;1.70;;;8.80;99.90;;;;;;5014614;28;20470;-74
2023/10/26 00:02:54;;;;;;;2.85;1.50;;;8.80;99.90;;;;;;5014732;28;20044;-74
2023/10/26 00:05:20;;;;;;;3.75;1.50;;;8.80;99.90;;;;;;5014833;28;20026;-74
2023/10/26 00:07:46;;;;;;;2.17;1.20;;;8.80;99.90;;;;;;5014170;28;20070;-73
2023/10/26 00:10:12;;;;;;;3.45;1.70;;;8.90;99.90;;;;;;5012686;28;20092;-74
2023/10/26 00:12:38;;;;;;;2.45;1.65;;;8.90;99.90;;;;;;5014156;28;20026;-74
2023/10/26 00:15:04;;;;;;;2.97;1.60;;;8.90;99.90;;;;;;5012595;28;20502;-74
2023/10/26 00:17:29;;;;;;;2.85;1.60;;;8.90;99.90;;;;;;5013861;28;20120;-74
2023/10/26 00:19:55;;;;;;;3.25;1.70;;;8.90;99.90;;;;;;5012454;28;20068;-74
2023/10/26 00:22:21;;;;;;;3.35;1.80;;;8.90;99.90;;;;;;5013752;28;20045;-73
2023/10/26 00:24:47;;;;;;;2.92;1.50;;;8.90;99.90;;;;;;5013758;28;20030;-74
2023/10/26 00:27:14;;;;;;;3.63;1.77;;;8.90;99.90;;;;;;5013610;28;20038;-74
2023/10/26 00:29:40;;;;;;;2.88;1.60;;;8.90;99.90;;;;;;5013881;28;20100;-74
2023/10/26 00:32:06;;;;;;;4.00;2.20;;;8.90;99.90;;;;;;5013017;28;20076;-74
2023/10/26 00:34:38;;;;;;;3.50;2.00;;;8.90;99.90;;;;;;5013966;28;20025;-74
2023/10/26 00:37:04;;;;;;;3.70;2.10;;;8.90;99.90;;;;;;5013552;28;20482;-74
2023/10/26 00:39:29;;;;;;;3.70;1.80;;;8.80;99.90;;;;;;5012388;28;20068;-74
2023/10/26 00:41:55;;;;;;;3.13;1.70;;;8.80;99.90;;;;;;5013575;28;20030;-74
2023/10/26 00:44:22;;;;;;;2.92;1.88;;;8.80;99.90;;;;;;5013788;28;20105;-74
2023/10/26 00:46:49;;;;;;;3.25;1.98;;;8.90;99.90;;;;;;5013449;28;20022;-74
2023/10/26 00:49:15;;;;;;;3.30;1.90;;;8.80;99.90;;;;;;5013534;28;20030;-74
2023/10/26 00:51:46;;;;;;;3.22;1.85;;;8.80;99.90;;;;;;5013492;28;20030;-74
2023/10/26 00:54:13;;;;;;;3.05;1.52;;;8.80;99.90;;;;;;5014068;28;20467;-74
2023/10/26 00:56:39;;;;;;;2.17;1.50;;;8.80;99.90;;;;;;5012216;28;20088;-74
2023/10/26 00:59:05;;;;;;;2.50;1.50;;;8.70;99.90;;;;;;5012057;28;20065;-74
2023/10/26 01:01:32;;;;;;;4.38;1.25;;;8.70;99.90;;;;;;5013592;28;20022;-74
2023/10/26 01:03:59;;;;;;;2.67;1.50;;;8.70;99.90;;;;;;5013727;28;20030;-73
2023/10/26 01:06:25;;;;;;;2.83;1.48;;;8.70;99.90;;;;;;5013288;28;20368;-74
2023/10/26 01:08:50;;;;;;;3.50;1.63;;;8.70;99.90;;;;;;5012295;28;20029;-74
2023/10/26 01:11:16;;;;;;;2.53;1.55;;;8.70;99.90;;;;;;5013254;28;20104;-74
2023/10/26 01:13:42;;;;;;;2.40;1.60;;;8.80;99.90;;;;;;5012146;28;20033;-74
2023/10/26 01:16:09;;;;;;;5.18;1.80;;;8.80;99.90;;;;;;5013447;28;20502;-74
2023/10/26 01:18:34;;;;;;;4.38;1.88;;;8.80;99.90;;;;;;5013265;28;20042;-74
2023/10/26 01:21:00;;;;;;;5.32;2.17;;;8.90;99.90;;;;;;5013199;28;20037;-74
2023/10/26 01:23:26;;;;;;;3.00;1.90;;;8.90;99.90;;;;;;5013239;28;20375;-74
2023/10/26 01:25:53;;;;;;;13.45;2.58;;;8.80;99.90;;;;;;5013374;28;20069;-74
2023/10/26 01:28:19;;;;;;;3.28;2.28;;;8.80;99.90;;;;;;5013171;28;20084;-74
2023/10/26 01:30:45;;;;;;;5.15;2.22;;;8.80;99.90;;;;;;5013272;28;20445;-74
2023/10/26 01:33:11;;;;;;;3.05;2.00;;;8.70;99.90;;;;;;5013171;28;20030;-74
2023/10/26 01:35:38;;;;;;;3.65;1.90;;;8.70;99.90;;;;;;4995816;28;20385;-74
2023/10/26 01:38:04;;;;;;;5.20;2.20;;;8.60;99.90;;;;;;5013062;28;20026;-74
2023/10/26 01:40:30;;;;;;;3.00;1.70;;;8.60;99.90;;;;;;5012973;28;20046;-74
2023/10/26 01:42:56;;;;;;;2.70;1.40;;;8.50;99.90;;;;;;5014300;28;20029;-74
2023/10/26 01:45:21;;;;;;;2.42;1.33;;;8.50;99.90;;;;;;5015183;28;20172;-74
2023/10/26 01:47:47;;;;;;;3.60;1.80;;;8.40;99.90;;;;;;5015112;28;20030;-74
2023/10/26 01:50:13;;;;;;;2.85;1.60;;;8.50;99.90;;;;;;5015106;28;20108;-74
2023/10/26 01:52:38;;;;;;;2.90;1.70;;;8.50;99.90;;;;;;5016610;28;20029;-74
2023/10/26 01:55:04;;;;;;;3.05;1.70;;;8.50;99.90;;;;;;5016362;28;20438;-74
2023/10/26 01:57:30;;;;;;;3.70;1.88;;;8.50;99.90;;;;;;5016374;28;20089;-74
2023/10/26 01:59:56;;;;;;;11.60;5.72;;;8.50;99.90;;;;;;5016360;28;20045;-74
2023/10/26 02:02:22;;;;;;;11.50;5.00;;;8.60;99.90;;;;;;5016762;28;20042;-74
2023/10/26 02:04:47;;;;;;;18.55;10.38;;;8.50;99.90;;;;;;5016115;28;20053;-74
2023/10/26 02:07:13;;;;;;;20.25;10.55;;;8.50;99.90;;;;;;5047888;28;20505;-74
2023/10/26 02:09:39;;;;;;;15.75;8.98;;;8.40;99.90;;;;;;5015033;28;20022;-74
2023/10/26 02:12:05;;;;;;;14.70;7.85;;;8.50;99.90;;;;;;5015978;28;20038;-74
2023/10/26 02:14:30;;;;;;;9.13;5.13;;;8.50;99.90;;;;;;5015923;28;20022;-74
2023/10/26 02:16:56;;;;;;;6.32;3.60;;;8.50;99.90;;;;;;5015970;28;20398;-74
2023/10/26 02:19:22;;;;;;;4.53;2.78;;;8.60;99.90;;;;;;5014536;28;20041;-74
2023/10/26 02:21:47;;;;;;;3.90;2.35;;;8.60;99.90;;;;;;5016133;28;20034;-74
2023/10/26 02:24:13;;;;;;;7.15;2.78;;;8.50;99.90;;;;;;5014529;28;20029;-74
2023/10/26 02:26:39;;;;;;;7.45;3.13;;;8.50;99.90;;;;;;5015702;28;20037;-74
2023/10/26 02:29:04;;;;;;;6.22;3.13;;;8.50;99.90;;;;;;5015740;28;20037;-74
2023/10/26 02:31:30;;;;;;;5.95;3.03;;;8.50;99.90;;;;;;5016635;28;20050;-74
2023/10/26 02:33:56;;;;;;;4.00;2.22;;;8.50;99.90;;;;;;5015557;28;20048;-74
2023/10/26 02:36:22;;;;;;;3.10;1.98;;;8.50;99.90;;;;;;5015902;28;20445;-74
2023/10/26 02:38:47;;;;;;;3.15;1.42;;;8.50;99.90;;;;;;5015901;28;20468;-74
2023/10/26 02:41:13;;;;;;;3.17;1.80;;;8.50;99.90;;;;;;5014400;28;20037;-74
2023/10/26 02:43:39;;;;;;;3.60;2.00;;;8.50;99.90;;;;;;5015648;28;20057;-74
2023/10/26 02:46:06;;;;;;;4.72;2.53;;;8.50;99.90;;;;;;5015215;28;20069;-74
2023/10/26 02:48:33;;;;;;;4.03;2.50;;;8.40;99.90;;;;;;5013873;28;20018;-74
2023/10/26 02:50:58;;;;;;;4.13;2.40;;;8.40;99.90;;;;;;5012944;28;20022;-74
2023/10/26 02:53:24;;;;;;;4.38;2.28;;;8.40;99.90;;;;;;5014468;28;20096;-74
2023/10/26 02:55:50;;;;;;;3.05;1.83;;;8.40;99.90;;;;;;5014856;28;20030;-74
2023/10/26 02:58:15;;;;;;;3.72;1.88;;;8.50;99.90;;;;;;5015080;28;20041;-74
2023/10/26 03:00:41;;;;;;;3.75;1.80;;;8.40;99.90;;;;;;5015036;28;20030;-74
2023/10/26 03:03:07;;;;;;;4.30;1.58;;;8.50;99.90;;;;;;5013755;28;20184;-74
2023/10/26 03:05:33;;;;;;;2.83;1.50;;;8.40;99.90;;;;;;5014910;28;20053;-74
2023/10/26 03:07:59;;;;;;;3.35;1.50;;;8.40;99.90;;;;;;5015140;28;20079;-74
2023/10/26 03:10:28;;;;;;;3.65;1.80;;;8.40;99.90;;;;;;5015060;28;20073;-74
2023/10/26 03:12:53;;;;;;;3.20;1.70;;;8.30;99.90;;;;;;5014901;28;20050;-74
2023/10/26 03:15:19;;;;;;;2.80;1.65;;;8.30;99.90;;;;;;5015001;28;20474;-74
2023/10/26 03:17:45;;;;;;;3.85;1.40;;;8.30;99.90;;;;;;5013604;28;20038;-74
2023/10/26 03:20:11;;;;;;;2.83;1.45;;;8.20;99.90;;;;;;5014796;28;20117;-74
2023/10/26 03:22:37;;;;;;;3.35;1.42;;;8.20;99.90;;;;;;5014519;28;20064;-74
2023/10/26 03:25:04;;;;;;;2.50;1.40;;;8.20;99.90;;;;;;5014233;28;20057;-74
2023/10/26 03:27:30;;;;;;;3.65;1.30;;;8.10;99.90;;;;;;5014796;28;20029;-73
2023/10/26 03:29:57;;;;;;;2.60;1.40;;;8.20;99.90;;;;;;5014564;28;20034;-74
2023/10/26 03:32:22;;;;;;;2.20;1.35;;;8.10;99.90;;;;;;5014520;28;20026;-74
2023/10/26 03:34:48;;;;;;;3.30;1.40;;;8.10;99.90;;;;;;5014610;28;20418;-74
2023/10/26 03:37:15;;;;;;;3.20;1.55;;;8.10;99.90;;;;;;5014420;28;20080;-74
2023/10/26 03:39:40;;;;;;;4.00;1.30;;;8.10;99.90;;;;;;5013321;28;20046;-74
2023/10/26 03:42:06;;;;;;;4.38;1.63;;;8.10;99.90;;;;;;5014678;28;20072;-74
2023/10/26 03:44:32;;;;;;;2.40;1.30;;;8.10;99.90;;;;;;5013576;28;20034;-74
2023/10/26 03:46:58;;;;;;;3.00;1.70;;;8.00;99.90;;;;;;5013726;28;20062;-74
2023/10/26 03:49:23;;;;;;;3.17;1.73;;;8.00;99.90;;;;;;5014670;28;20018;-74
2023/10/26 03:51:49;;;;;;;3.97;1.40;;;7.90;99.90;;;;;;5015059;28;20474;-74
2023/10/26 03:54:15;;;;;;;3.15;1.45;;;7.80;99.90;;;;;;5014489;28;20084;-74
2023/10/26 03:56:41;;;;;;;4.53;1.40;;;7.70;99.90;;;;;;5014176;28;20124;-74
2023/10/26 03:59:07;;;;;;;3.00;1.50;;;7.60;99.90;;;;;;5013111;28;20042;-74
2023/10/26 04:01:34;;;;;;;2.72;1.60;;;7.50;99.90;;;;;;5014402;28;20131;-74
2023/10/26 04:04:01;;;;;;;3.08;1.60;;;7.50;99.90;;;;;;5014502;28;20026;-74
2023/10/26 04:06:28;;;;;;;2.65;1.50;;;7.50;99.90;;;;;;5013548;28;20030;-74
2023/10/26 04:08:56;;;;;;;2.75;1.30;;;7.50;99.90;;;;;;5014210;28;20037;-74
2023/10/26 04:11:22;;;;;;;3.47;1.27;;;7.50;99.90;;;;;;5013981;28;20030;-74
2023/10/26 04:13:48;;;;;;;5.53;1.58;;;7.50;99.90;;;;;;5013537;28;20061;-74
2023/10/26 04:16:13;;;;;;;2.63;1.50;;;7.40;99.90;;;;;;5012638;28;20057;-74
2023/10/26 04:18:39;;;;;;;2.33;1.60;;;7.40;99.90;;;;;;5013818;28;20033;-74
2023/10/26 04:21:05;;;;;;;2.67;1.52;;;7.40;99.90;;;;;;5013889;28;20040;-74
2023/10/26 04:23:31;;;;;;;2.75;1.40;;;7.40;99.90;;;;;;5014094;28;20061;-74
2023/10/26 04:25:56;;;;;;;7.57;3.15;;;7.40;99.90;;;;;;5013679;28;20034;-74
2023/10/26 04:28:23;;;;;;;26.00;10.95;;;7.40;99.90;;;;;;5013664;28;20030;-74
2023/10/26 04:30:49;;;;;;;33.72;14.80;;;7.40;99.90;;;;;;5013721;28;20026;-74
2023/10/26 04:33:15;;;;;;;32.35;18.65;;;7.40;99.90;;;;;;5013440;28;20029;-74
2023/10/26 04:35:42;;;;;;;32.00;18.73;;;7.40;99.90;;;;;;5013236;28;20037;-74
2023/10/26 04:38:08;;;;;;;21.38;14.95;;;7.50;99.90;;;;;;5016216;28;20068;-74
2023/10/26 04:40:35;;;;;;;16.60;11.90;;;7.50;99.90;;;;;;5016188;28;20040;-75
2023/10/26 04:43:00;;;;;;;15.77;10.73;;;7.50;99.90;;;;;;5049162;28;20030;-75
2023/10/26 04:45:26;;;;;;;7.40;5.68;;;7.50;99.90;;;;;;5050345;28;20026;-76
2023/10/26 04:47:52;;;;;;;6.53;4.57;;;7.40;99.90;;;;;;5034863;28;20053;-76
2023/10/26 04:50:18;;;;;;;6.15;3.63;;;7.40;99.90;;;;;;5016811;28;20531;-74
2023/10/26 04:52:43;;;;;;;6.25;3.42;;;7.40;99.90;;;;;;5013426;28;20661;-74
2023/10/26 04:55:09;;;;;;;12.57;6.40;;;7.30;99.90;;;;;;4998074;28;20026;-74
2023/10/26 04:57:35;;;;;;;12.05;4.93;;;7.30;99.90;;;;;;5012097;28;20041;-74
2023/10/26 05:00:00;;;;;;;7.53;2.80;;;7.30;99.90;;;;;;5012079;28;20490;-74
2023/10/26 05:02:26;;;;;;;3.97;2.25;;;7.30;99.90;;;;;;5013575;28;20461;-75
2023/10/26 05:04:52;;;;;;;2.80;1.98;;;7.20;99.90;;;;;;5030438;28;20033;-74
2023/10/26 05:07:17;;;;;;;3.28;2.08;;;7.20;99.90;;;;;;5032272;28;20075;-74
2023/10/26 05:09:43;;;;;;;4.78;2.90;;;7.10;99.90;;;;;;5033015;28;20034;-74
2023/10/26 05:12:09;;;;;;;4.40;3.03;;;7.10;99.90;;;;;;5033031;28;20041;-74
2023/10/26 05:14:34;;;;;;;6.13;2.75;;;7.10;99.90;;;;;;5032943;28;20033;-74
2023/10/26 05:17:00;;;;;;;4.80;3.05;;;7.10;99.90;;;;;;5031830;28;20026;-74
2023/10/26 05:19:25;;;;;;;6.47;4.05;;;7.00;99.90;;;;;;5036649;28;20053;-74
2023/10/26 05:21:51;;;;;;;6.60;3.63;;;7.00;99.90;;;;;;5036741;28;20401;-74
2023/10/26 05:24:17;;;;;;;5.25;3.25;;;7.00;99.90;;;;;;5036786;28;20588;-74
2023/10/26 05:26:42;;;;;;;4.35;2.42;;;7.00;99.90;;;;;;5037161;28;20518;-74
2023/10/26 05:29:08;;;;;;;4.68;2.33;;;7.00;99.90;;;;;;5037085;28;20394;-74
2023/10/26 05:31:34;;;;;;;4.03;2.00;;;7.00;99.90;;;;;;5036411;28;20205;-74
2023/10/26 05:33:59;;;;;;;4.90;2.55;;;7.00;99.90;;;;;;5036572;28;20047;-74
2023/10/26 05:36:25;;;;;;;6.53;2.85;;;7.00;99.90;;;;;;5035368;28;20083;-73
2023/10/26 05:38:50;;;;;;;5.80;3.38;;;7.00;99.90;;;;;;5036285;28;20565;-74
2023/10/26 05:41:16;;;;;;;5.22;2.90;;;7.00;99.90;;;;;;5036337;28;20045;-74
2023/10/26 05:43:42;;;;;;;4.63;2.55;;;7.00;99.90;;;;;;5036412;28;20588;-74
2023/10/26 05:46:07;;;;;;;4.70;2.50;;;7.00;99.90;;;;;;5036136;28;20044;-74
2023/10/26 05:48:34;;;;;;;7.60;3.33;;;7.10;99.90;;;;;;5036501;28;20033;-74
2023/10/26 05:50:59;;;;;;;6.72;3.78;;;7.10;99.90;;;;;;5035306;28;20029;-75
2023/10/26 05:53:25;;;;;;;8.05;4.07;;;7.10;99.90;;;;;;5036062;28;20397;-75
2023/10/26 05:55:58;;;;;;;6.75;4.03;;;7.10;99.90;;;;;;5034937;28;20477;-75
2023/10/26 05:58:28;;;;;;;7.00;3.45;;;7.10;99.90;;;;;;5018314;28;20405;-74
2023/10/26 06:00:53;;;;;;;4.53;2.80;;;7.10;99.90;;;;;;5035974;28;20026;-75
2023/10/26 06:03:19;;;;;;;4.53;3.10;;;7.10;99.90;;;;;;5034801;28;20017;-75
2023/10/26 06:05:45;;;;;;;4.60;2.80;;;7.10;99.90;;;;;;5035930;28;20457;-75
2023/10/26 06:08:12;;;;;;;12.65;6.82;;;7.20;99.90;;;;;;5034571;28;20084;-75
2023/10/26 06:10:38;;;;;;;6.47;4.25;;;7.20;99.90;;;;;;5035803;28;20393;-76
2023/10/26 06:13:07;;;;;;;4.82;3.22;;;7.30;99.90;;;;;;5035781;28;20032;-76
2023/10/26 06:15:33;;;;;;;3.83;2.38;;;7.30;99.90;;;;;;5034871;28;20453;-76
2023/10/26 06:17:59;;;;;;;3.75;2.03;;;7.40;99.90;;;;;;5034593;28;20036;-76
2023/10/26 06:20:27;;;;;;;4.28;2.00;;;7.40;99.90;;;;;;5035674;28;20034;-74
2023/10/26 06:22:54;;;;;;;6.53;3.00;;;7.40;99.90;;;;;;5020240;28;20135;-74
2023/10/26 06:25:20;;;;;;;3.63;2.35;;;7.40;99.90;;;;;;5021345;28;20033;-74
2023/10/26 06:27:49;;;;;;;3.80;2.67;;;7.50;99.90;;;;;;5030753;28;20057;-74
2023/10/26 06:30:15;;;;;;;5.75;2.97;;;7.50;99.90;;;;;;5024808;28;20521;-75
2023/10/26 06:32:42;;;;;;;7.80;4.13;;;7.50;99.90;;;;;;5020228;28;20087;-74
2023/10/26 06:35:08;;;;;;;7.70;5.25;;;7.50;99.90;;;;;;5019247;28;20021;-74
2023/10/26 06:37:34;;;;;;;7.50;4.63;;;7.50;99.90;;;;;;5022112;28;20053;-75
2023/10/26 06:39:59;;;;;;;7.18;4.45;;;7.50;99.90;;;;;;5023139;28;20470;-75
2023/10/26 06:42:25;;;;;;;8.05;4.38;;;7.50;99.90;;;;;;5015414;28;20065;-75
2023/10/26 06:44:51;;;;;;;6.05;4.10;;;7.50;99.90;;;;;;5014927;28;20045;-74
2023/10/26 06:47:17;;;;;;;6.88;4.00;;;7.50;99.90;;;;;;5015403;28;20032;-75
2023/10/26 06:49:43;;;;;;;7.68;3.95;;;7.50;99.90;;;;;;4997621;28;20096;-75
2023/10/26 06:52:09;;;;;;;5.20;3.50;;;7.60;99.90;;;;;;5013492;28;20022;-75
2023/10/26 06:54:34;;;;;;;8.45;3.90;;;7.60;99.90;;;;;;5014189;28;20500;-75
2023/10/26 06:57:00;;;;;;;5.72;3.50;;;7.70;99.90;;;;;;5015320;28;20565;-75
2023/10/26 06:59:25;;;;;;;4.13;2.85;;;7.70;99.90;;;;;;5012962;28;20509;-74
2023/10/26 07:01:51;;;;;;;6.03;3.63;;;7.70;99.90;;;;;;5014935;28;20034;-75
2023/10/26 07:04:17;;;;;;;6.07;3.15;;;7.80;99.90;;;;;;5015698;28;20034;-75
2023/10/26 07:06:43;;;;;;;5.40;2.58;;;7.80;99.90;;;;;;5015248;28;20033;-75
2023/10/26 07:09:08;;;;;;;3.70;2.50;;;7.80;99.90;;;;;;5015398;28;20021;-75
2023/10/26 07:11:34;;;;;;;3.90;2.25;;;7.90;99.90;;;;;;5015236;28;20026;-75
2023/10/26 07:14:00;;;;;;;6.43;3.50;;;7.90;99.90;;;;;;5013843;28;20515;-75
2023/10/26 07:16:26;;;;;;;5.88;3.58;;;8.00;99.90;;;;;;5015310;28;20475;-75
2023/10/26 07:18:52;;;;;;;6.20;3.20;;;8.00;99.90;;;;;;5015852;28;20025;-75
2023/10/26 07:21:18;;;;;;;5.32;3.25;;;8.10;99.90;;;;;;5015690;28;20033;-75
2023/10/26 07:23:43;;;;;;;7.35;4.07;;;8.10;99.90;;;;;;5015194;28;20033;-75
2023/10/26 07:26:14;;;;;;;12.52;9.07;;;8.10;99.90;;;;;;5014994;28;20490;-75
2023/10/26 07:28:40;;;;;;;10.85;7.55;;;8.20;99.90;;;;;;5015446;28;20025;-74
2023/10/26 07:31:06;;;;;;;11.85;6.72;;;8.20;99.90;;;;;;5015556;28;20026;-75
2023/10/26 07:33:31;;;;;;;10.93;6.68;;;8.30;99.90;;;;;;5017857;28;20053;-74
2023/10/26 07:35:57;;;;;;;9.32;5.88;;;8.30;99.90;;;;;;5018588;28;20030;-74
2023/10/26 07:38:27;;;;;;;8.93;5.28;;;8.30;99.90;;;;;;5014829;28;20065;-74
2023/10/26 07:40:54;;;;;;;6.72;4.95;;;8.40;99.90;;;;;;5013622;28;20030;-74
2023/10/26 07:43:20;;;;;;;8.73;4.90;;;8.40;99.90;;;;;;5014972;28;20422;-74
2023/10/26 07:45:47;;;;;;;7.10;4.35;;;8.50;99.90;;;;;;5014412;28;20102;-74
2023/10/26 07:48:13;;;;;;;6.05;3.75;;;8.50;99.90;;;;;;5014431;28;20029;-74
2023/10/26 07:50:39;;;;;;;7.03;4.13;;;8.60;99.90;;;;;;5014159;28;20544;-75
2023/10/26 07:53:05;;;;;;;5.40;3.70;;;8.70;99.90;;;;;;5014841;28;20116;-75
2023/10/26 07:55:31;;;;;;;5.75;3.67;;;8.70;99.90;;;;;;5014235;28;20026;-75
2023/10/26 07:57:57;;;;;;;5.68;3.65;;;8.80;99.90;;;;;;5014250;28;20172;-74
2023/10/26 08:00:23;;;;;;;5.97;3.80;;;8.80;99.90;;;;;;5013133;28;20445;-75
2023/10/26 08:02:49;;;;;;;4.30;3.10;;;8.80;99.90;;;;;;5014077;28;20030;-75
2023/10/26 08:05:15;;;;;;;5.07;3.08;;;8.90;99.90;;;;;;5014629;28;20055;-75
2023/10/26 08:07:41;;;;;;;5.47;3.50;;;8.90;99.90;;;;;;5013865;28;20026;-75
2023/10/26 08:10:09;;;;;;;44.95;40.22;;;9.00;99.90;;;;;;5013939;28;20032;-75
2023/10/26 08:12:35;;;;;;;22.98;19.85;;;9.10;99.90;;;;;;5014495;28;20512;-75
2023/10/26 08:15:02;;;;;;;16.33;14.57;;;9.10;99.90;;;;;;5028485;28;20017;-75
2023/10/26 08:17:28;;;;;;;15.27;13.00;;;9.20;99.90;;;;;;5034130;28;20087;-75
2023/10/26 08:19:54;;;;;;;8.95;7.40;;;9.20;99.90;;;;;;5015021;28;20034;-75
2023/10/26 08:22:21;;;;;;;7.95;4.57;;;9.30;99.90;;;;;;5024156;28;20029;-75
2023/10/26 08:24:50;;;;;;;6.65;4.13;;;9.40;99.90;;;;;;5014468;28;20026;-75
2023/10/26 08:27:15;;;;;;;7.05;4.40;;;9.40;99.90;;;;;;5013846;28;20093;-75
2023/10/26 08:29:41;;;;;;;6.85;4.28;;;9.50;99.90;;;;;;5012519;28;20037;-75
2023/10/26 08:32:07;;;;;;;5.68;4.07;;;9.50;99.90;;;;;;5013736;28;20053;-75
2023/10/26 08:34:33;;;;;;;6.57;4.28;;;9.60;99.90;;;;;;5013820;28;20022;-75
2023/10/26 08:37:01;;;;;;;5.65;3.65;;;9.60;99.90;;;;;;5013739;28;20032;-75
2023/10/26 08:39:27;;;;;;;5.47;3.05;;;9.70;99.90;;;;;;5013628;28;20026;-75
2023/10/26 08:41:58;;;;;;;5.05;3.78;;;9.70;99.90;;;;;;5013971;28;20041;-75
2023/10/26 08:44:26;;;;;;;6.97;3.80;;;9.80;99.90;;;;;;5013861;28;20534;-75
2023/10/26 08:46:57;;;;;;;7.18;3.90;;;9.80;99.90;;;;;;5013532;28;20084;-75
2023/10/26 08:49:27;;;;;;;9.13;4.32;;;9.80;99.90;;;;;;5013577;28;20097;-75
2023/10/26 08:51:53;;;;;;;6.60;4.28;;;9.90;99.90;;;;;;5013565;28;20104;-75
2023/10/26 08:54:19;;;;;;;4.65;3.58;;;9.90;99.90;;;;;;5017365;28;20026;-75
2023/10/26 08:56:45;;;;;;;5.93;4.18;;;9.90;99.90;;;;;;5017759;28;20072;-75
2023/10/26 08:59:10;;;;;;;6.70;4.78;;;9.90;99.90;;;;;;5017338;28;20066;-75
2023/10/26 09:01:36;;;;;;;6.00;4.18;;;10.00;99.90;;;;;;5017307;28;20145;-75
2023/10/26 09:04:08;;;;;;;6.22;4.45;;;10.00;99.90;;;;;;5017282;28;20101;-75
2023/10/26 09:06:46;;;;;;;8.60;4.85;;;10.00;99.90;;;;;;5017506;28;20482;-75
2023/10/26 09:09:13;;;;;;;7.97;4.65;;;10.00;99.90;;;;;;5017276;28;20018;-75
2023/10/26 09:11:38;;;;;;;5.60;3.80;;;10.00;99.90;;;;;;5017450;28;20022;-75
2023/10/26 09:14:18;;;;;;;6.28;4.05;;;10.00;99.90;;;;;;5015948;28;20026;-75
2023/10/26 09:16:48;;;;;;;6.03;3.92;;;10.00;99.90;;;;;;5015886;28;20034;-75
2023/10/26 09:19:18;;;;;;;6.10;4.55;;;10.10;99.90;;;;;;5017036;28;20026;-75
2023/10/26 09:21:57;;;;;;;7.53;4.85;;;10.00;99.90;;;;;;5017739;28;20030;-75
2023/10/26 09:24:26;;;;;;;6.07;4.05;;;10.00;99.90;;;;;;5017021;28;20065;-74
2023/10/26 09:26:53;;;;;;;6.15;3.83;;;10.10;99.90;;;;;;5016859;28;20474;-75
2023/10/26 09:29:20;;;;;;;7.18;4.57;;;10.10;99.90;;;;;;5015616;28;20486;-74
2023/10/26 09:31:53;;;;;;;6.55;4.50;;;10.10;99.90;;;;;;5016857;28;20030;-74
2023/10/26 09:34:22;;;;;;;6.15;4.43;;;10.10;99.90;;;;;;5016777;28;20018;-74
2023/10/26 09:36:59;;;;;;;5.78;4.10;;;10.20;99.90;;;;;;5016735;28;20105;-74
2023/10/26 09:39:33;;;;;;;5.78;4.22;;;10.20;99.90;;;;;;5016596;28;20121;-74
2023/10/26 09:42:00;;;;;;;5.35;3.88;;;10.20;99.90;;;;;;5016706;28;20080;-75
2023/10/26 09:44:27;;;;;;;5.57;3.88;;;10.30;99.90;;;;;;5015704;28;20425;-75
2023/10/26 09:46:54;;;;;;;6.95;4.90;;;10.30;99.90;;;;;;5016759;28;20026;-75
2023/10/26 09:49:21;;;;;;;7.28;4.82;;;10.30;99.90;;;;;;5016507;28;20057;-75
2023/10/26 09:51:46;;;;;;;5.38;4.45;;;10.30;99.90;;;;;;5016463;28;20390;-75
2023/10/26 09:54:13;;;;;;;7.03;4.50;;;10.30;99.90;;;;;;5016437;28;20026;-74
2023/10/26 09:56:45;;;;;;;7.10;4.93;;;10.30;99.90;;;;;;5016459;28;20037;-74
2023/10/26 09:59:11;;;;;;;6.40;4.57;;;10.40;99.90;;;;;;5016338;28;20037;-75
2023/10/26 10:01:38;;;;;;;7.53;5.57;;;10.40;99.90;;;;;;5016493;28;20034;-74
2023/10/26 10:04:05;;;;;;;8.02;5.38;;;10.40;99.90;;;;;;5016768;28;20390;-74
2023/10/26 10:06:50;;;;;;;9.43;5.90;;;10.40;99.90;;;;;;5016126;28;20050;-75
2023/10/26 10:09:23;;;;;;;10.55;5.63;;;10.40;99.90;;;;;;5016328;28;20029;-75
2023/10/26 10:12:13;;;;;;;8.88;6.50;;;10.40;99.90;;;;;;5016485;28;20022;-75
2023/10/26 10:14:48;;;;;;;6.68;5.03;;;10.50;99.90;;;;;;5016060;28;20605;-74
2023/10/26 10:17:15;;;;;;;6.10;4.82;;;10.50;99.90;;;;;;5016038;28;20105;-75
2023/10/26 10:19:43;;;;;;;8.70;5.85;;;10.60;99.90;;;;;;5015907;28;20451;-74
2023/10/26 10:22:44;;;;;;;8.25;5.50;;;10.60;99.90;;;;;;5016266;28;20045;-74
2023/10/26 10:25:10;;;;;;;7.55;5.45;;;10.70;99.90;;;;;;5004466;28;20041;-75
2023/10/26 10:27:37;;;;;;;8.20;6.35;;;10.70;99.90;;;;;;5015725;28;20038;-75
2023/10/26 10:30:05;;;;;;;8.13;5.95;;;10.70;99.90;;;;;;5014708;28;20022;-74
2023/10/26 10:32:43;;;;;;;8.65;6.22;;;10.70;99.90;;;;;;5014460;28;20030;-74
2023/10/26 10:35:10;;;;;;;7.57;5.72;;;10.70;99.90;;;;;;5015600;28;20383;-75
2023/10/26 10:37:37;;;;;;;8.32;6.13;;;10.80;99.90;;;;;;5017175;28;20422;-75
2023/10/26 10:40:13;;;;;;;8.07;6.57;;;10.80;99.90;;;;;;5015581;28;20117;-74
2023/10/26 10:42:45;;;;;;;7.93;6.07;;;10.90;99.90;;;;;;5015618;28;20026;-74
2023/10/26 10:45:11;;;;;;;7.70;5.15;;;10.90;99.90;;;;;;5014321;28;20057;-74
2023/10/26 10:47:42;;;;;;;7.65;5.65;;;10.90;99.90;;;;;;5015497;28;20037;-75
2023/10/26 10:50:18;;;;;;;10.77;6.27;;;10.90;99.90;;;;;;5015371;28;20029;-75
2023/10/26 10:52:44;;;;;;;6.65;5.22;;;11.00;99.90;;;;;;5015861;28;20060;-75
2023/10/26 10:55:10;;;;;;;8.75;6.45;;;11.00;99.90;;;;;;5015858;28;20036;-75
2023/10/26 10:58:01;;;;;;;8.88;5.60;;;11.00;99.90;;;;;;5015398;28;20042;-75
2023/10/26 11:00:41;;;;;;;9.80;6.50;;;11.00;99.90;;;;;;5015130;28;20029;-75
2023/10/26 11:03:06;;;;;;;9.60;5.82;;;11.00;99.90;;;;;;5015177;28;20260;-75
2023/10/26 11:05:40;;;;;;;10.85;6.70;;;11.10;99.90;;;;;;5015114;28;20037;-75
2023/10/26 11:08:07;;;;;;;10.25;8.13;;;11.10;99.90;;;;;;5014924;28;20022;-75
2023/10/26 11:10:34;;;;;;;11.38;7.97;;;11.10;99.90;;;;;;5015027;28;20036;-74
2023/10/26 11:12:59;;;;;;;11.82;8.57;;;11.10;99.90;;;;;;5013673;28;20033;-75
2023/10/26 11:15:32;;;;;;;10.38;7.93;;;11.20;99.90;;;;;;5014457;28;20030;-75
2023/10/26 11:17:59;;;;;;;10.07;6.95;;;11.20;99.90;;;;;;5014950;28;20112;-74
2023/10/26 11:20:38;;;;;;;10.70;8.48;;;11.20;99.90;;;;;;5014878;28;20549;-75
2023/10/26 11:23:12;;;;;;;12.30;7.68;;;11.20;99.90;;;;;;5015072;28;20026;-74
2023/10/26 11:25:38;;;;;;;12.32;8.43;;;11.20;99.90;;;;;;5013457;28;20037;-74
2023/10/26 11:28:03;;;;;;;9.85;7.50;;;11.20;99.90;;;;;;5014671;28;20038;-74
2023/10/26 11:30:51;;;;;;;10.00;6.30;;;11.30;99.90;;;;;;5014624;28;20033;-74
2023/10/26 11:33:33;;;;;;;8.25;5.85;;;11.30;99.90;;;;;;5014647;28;20441;-74
2023/10/26 11:35:59;;;;;;;11.07;6.05;;;11.30;99.90;;;;;;5014650;28;20018;-74
2023/10/26 11:38:28;;;;;;;7.85;5.47;;;11.30;99.90;;;;;;5014515;28;20506;-74
2023/10/26 11:40:55;;;;;;;6.78;5.40;;;11.30;99.90;;;;;;5014407;28;20470;-74
2023/10/26 11:43:34;;;;;;;7.53;5.95;;;11.40;99.90;;;;;;5014315;28;20360;-74
2023/10/26 11:46:03;;;;;;;6.45;4.75;;;11.50;99.90;;;;;;5014530;28;20025;-74
2023/10/26 11:48:31;;;;;;;6.10;4.30;;;11.50;99.90;;;;;;5013124;28;20068;-74
2023/10/26 11:50:57;;;;;;;7.03;5.03;;;11.50;99.90;;;;;;5014143;28;20029;-74
2023/10/26 11:53:23;;;;;;;6.95;4.90;;;11.60;99.90;;;;;;5014211;28;20068;-74
2023/10/26 11:55:50;;;;;;;7.63;4.93;;;11.70;99.90;;;;;;5014230;28;20034;-74
2023/10/26 11:58:16;;;;;;;6.60;4.82;;;11.80;99.90;;;;;;5013952;28;20057;-75
2023/10/26 12:00:42;;;;;;;7.43;5.20;;;11.90;99.90;;;;;;5013026;28;20057;-74
2023/10/26 12:03:08;;;;;;;5.93;4.28;;;12.00;99.90;;;;;;5012846;28;20375;-74
2023/10/26 12:05:34;;;;;;;6.15;5.05;;;12.00;99.90;;;;;;5013958;28;20057;-74
2023/10/26 12:08:00;;;;;;;6.28;4.88;;;12.10;99.90;;;;;;5012708;28;20030;-74
2023/10/26 12:10:26;;;;;;;6.03;4.07;;;12.10;99.90;;;;;;5013865;28;20057;-74
2023/10/26 12:12:53;;;;;;;5.63;4.50;;;12.20;99.90;;;;;;5013896;28;20470;-74
2023/10/26 12:15:20;;;;;;;6.82;5.22;;;12.30;99.90;;;;;;5013917;28;20537;-74
2023/10/26 12:17:46;;;;;;;8.15;5.82;;;12.50;99.90;;;;;;5014160;28;20026;-74
2023/10/26 12:20:13;;;;;;;6.40;4.75;;;12.50;99.90;;;;;;5013790;28;20037;-74
2023/10/26 12:22:39;;;;;;;6.60;4.78;;;12.70;99.90;;;;;;5013804;28;20046;-74
2023/10/26 12:25:07;;;;;;;5.55;4.18;;;12.80;99.90;;;;;;5014110;28;20107;-74
2023/10/26 12:27:37;;;;;;;7.20;5.28;;;12.80;99.90;;;;;;5013147;28;20383;-74
2023/10/26 12:30:03;;;;;;;6.70;4.47;;;12.80;99.90;;;;;;5013637;28;20022;-74
2023/10/26 12:32:30;;;;;;;7.00;4.35;;;12.80;99.90;;;;;;5012516;28;20022;-74
2023/10/26 12:34:56;;;;;;;6.45;4.57;;;12.90;99.90;;;;;;5012475;28;20482;-74
2023/10/26 12:37:22;;;;;;;6.55;4.43;;;13.00;99.90;;;;;;5014144;28;20042;-74
2023/10/26 12:39:48;;;;;;;6.60;4.10;;;13.10;99.90;;;;;;5013610;28;20032;-74
2023/10/26 12:42:13;;;;;;;5.85;3.67;;;13.10;99.90;;;;;;5013913;28;20405;-74
2023/10/26 12:44:39;;;;;;;5.47;3.95;;;13.30;99.90;;;;;;5013634;28;20441;-74
2023/10/26 12:47:05;;;;;;;5.22;4.35;;;13.40;99.90;;;;;;5013767;28;20040;-74
2023/10/26 12:49:31;;;;;;;6.97;3.25;;;13.40;99.90;;;;;;5013715;28;20022;-74
2023/10/26 12:51:57;;;;;;;4.03;2.60;;;13.60;99.90;;;;;;5013782;28;20489;-74